Time;durP1;ratioP1;P1;durP2;ratioP2;P2;SDS_P1;SDS_P2;PMS_P1;PMS_P2;Temp;Humidity;BMP_temperature;BMP_pressure;BME280_temperature;BME280_humidity;BME280_pressure;Samples;Min_cycle;Max_cycle;Signal;HPM_P1;HPM_P2
2023/09/06 00:00:32;;;;;;;6.25;3.58;;;;;;;16.70;81.16;94399.66;5086490;28;20375;-86
2023/09/06 00:02:58;;;;;;;6.10;3.67;;;;;;;16.63;81.22;94395.63;5086402;28;20095;-86
2023/09/06 00:05:24;;;;;;;9.85;3.45;;;;;;;16.59;81.39;94400.09;5068986;28;20013;-87
2023/09/06 00:07:50;;;;;;;9.52;3.50;;;;;;;16.57;81.69;94388.91;5086649;28;20062;-87
2023/09/06 00:10:15;;;;;;;6.70;3.53;;;;;;;16.58;81.68;94395.84;5086393;28;20040;-87
2023/09/06 00:12:42;;;;;;;5.82;3.88;;;;;;;16.57;81.53;94391.59;5068447;28;20040;-87
2023/09/06 00:15:11;;;;;;;5.97;3.55;;;;;;;16.57;81.66;94402.34;5086114;28;20017;-87
2023/09/06 00:17:37;;;;;;;8.20;3.70;;;;;;;16.56;82.04;94398.06;5068599;28;20021;-88
2023/09/06 00:20:20;;;;;;;10.82;3.40;;;;;;;16.54;82.00;94403.00;5068942;28;20040;-88
2023/09/06 00:22:54;;;;;;;14.65;3.95;;;;;;;16.55;81.84;94404.59;5086553;28;20091;-88
2023/09/06 00:25:20;;;;;;;8.05;3.92;;;;;;;16.56;81.92;94400.00;5068879;28;20278;-88
2023/09/06 00:27:45;;;;;;;6.00;3.50;;;;;;;16.55;81.62;94399.22;5086643;28;20025;-88
2023/09/06 00:30:11;;;;;;;8.27;3.42;;;;;;;16.54;81.51;94407.63;5086499;28;20247;-88
2023/09/06 00:32:36;;;;;;;5.70;3.50;;;;;;;16.51;81.25;94403.69;5068671;28;20142;-88
2023/09/06 00:35:02;;;;;;;5.38;3.17;;;;;;;16.55;81.43;94396.53;5084664;28;20037;-88
2023/09/06 00:37:38;;;;;;;6.22;3.72;;;;;;;16.53;81.51;94400.69;5086267;28;20020;-88
2023/09/06 00:40:12;;;;;;;8.73;3.92;;;;;;;16.55;81.43;94380.38;5085165;28;20028;-88
2023/09/06 00:42:38;;;;;;;8.75;3.85;;;;;;;16.47;81.31;94393.97;5086152;28;20021;-88
2023/09/06 00:45:04;;;;;;;6.05;3.88;;;;;;;16.50;81.67;94385.97;5086297;28;20012;-88
2023/09/06 00:47:30;;;;;;;5.78;3.72;;;;;;;16.53;81.44;94390.69;5068393;28;20019;-87
2023/09/06 00:49:55;;;;;;;8.20;3.67;;;;;;;16.53;81.08;94385.31;5068267;28;20188;-88
2023/09/06 00:52:21;;;;;;;10.70;3.92;;;;;;;16.55;80.88;94379.59;5085976;28;20017;-87
2023/09/06 00:54:48;;;;;;;7.60;3.75;;;;;;;16.54;80.99;94378.03;5068101;28;20024;-88
2023/09/06 00:57:13;;;;;;;7.18;3.20;;;;;;;16.51;80.63;94371.41;5085578;28;20039;-87
2023/09/06 00:59:39;;;;;;;7.50;4.00;;;;;;;16.57;80.83;94375.44;5085664;28;20024;-86
2023/09/06 01:02:05;;;;;;;5.95;3.58;;;;;;;16.59;80.58;94377.81;5084281;28;20020;-87
2023/09/06 01:04:31;;;;;;;6.05;3.53;;;;;;;16.55;80.63;94366.91;5085402;28;20247;-86
2023/09/06 01:06:59;;;;;;;7.22;3.70;;;;;;;16.56;80.09;94365.78;5085161;28;20109;-86
2023/09/06 01:09:25;;;;;;;6.43;3.85;;;;;;;16.57;79.89;94371.97;5085283;28;20032;-86
2023/09/06 01:11:50;;;;;;;9.50;4.15;;;;;;;16.54;79.56;94370.72;5085323;28;20040;-84
2023/09/06 01:14:15;;;;;;;7.43;3.95;;;;;;;16.59;79.76;94372.41;5085177;28;20024;-86
2023/09/06 01:16:47;;;;;;;9.60;3.65;;;;;;;16.61;79.72;94379.03;5085003;28;20211;-86
2023/09/06 01:19:14;;;;;;;7.50;3.78;;;;;;;16.64;79.65;94382.94;5084938;28;20024;-86
2023/09/06 01:22:12;;;;;;;8.27;4.10;;;;;;;16.70;79.47;94373.50;5085188;28;20090;-88
2023/09/06 01:24:38;;;;;;;6.53;3.60;;;;;;;16.70;79.23;94370.81;5065453;28;20032;-88
2023/09/06 01:27:04;;;;;;;7.25;3.70;;;;;;;16.75;79.10;94367.91;5067575;28;20032;-88
2023/09/06 01:29:31;;;;;;;10.15;4.40;;;;;;;16.78;79.30;94367.22;5084153;28;20055;-88
2023/09/06 01:31:56;;;;;;;7.35;4.07;;;;;;;16.80;78.63;94366.88;5067443;28;20028;-88
2023/09/06 01:34:21;;;;;;;7.18;4.10;;;;;;;16.81;78.73;94363.09;5085045;28;20055;-87
2023/09/06 01:36:47;;;;;;;8.25;4.55;;;;;;;16.86;78.31;94367.47;5067164;28;20092;-87
2023/09/06 01:39:13;;;;;;;8.80;3.88;;;;;;;16.84;78.21;94365.88;5085013;28;20095;-87
2023/09/06 01:41:38;;;;;;;6.03;3.88;;;;;;;16.84;78.02;94370.50;5084821;28;20016;-88
2023/09/06 01:44:04;;;;;;;10.70;3.95;;;;;;;16.88;78.04;94370.59;5084980;28;20016;-88
2023/09/06 01:46:29;;;;;;;6.82;3.60;;;;;;;16.85;77.19;94369.34;5084055;28;20021;-88
2023/09/06 01:48:54;;;;;;;11.13;3.97;;;;;;;16.87;77.32;94360.94;5067008;28;20052;-88
2023/09/06 01:51:20;;;;;;;8.30;3.50;;;;;;;16.86;76.96;94354.78;5084846;28;20028;-88
2023/09/06 01:53:46;;;;;;;9.32;3.53;;;;;;;16.86;76.40;94354.78;5085105;28;20088;-88
2023/09/06 01:56:11;;;;;;;9.40;3.85;;;;;;;16.88;76.73;94352.53;5084863;28;20369;-88
2023/09/06 01:58:37;;;;;;;6.72;3.95;;;;;;;16.87;76.62;94352.88;5067045;28;20307;-88
2023/09/06 02:01:07;;;;;;;7.40;4.50;;;;;;;16.83;76.67;94352.75;5066958;28;20020;-88
2023/09/06 02:03:33;;;;;;;10.00;4.18;;;;;;;16.84;76.84;94351.66;5084687;28;20079;-88
2023/09/06 02:06:01;;;;;;;11.40;4.10;;;;;;;16.83;76.81;94352.75;5066669;28;20102;-88
2023/09/06 02:08:26;;;;;;;7.32;3.63;;;;;;;16.86;76.65;94359.38;5084400;28;20062;-87
2023/09/06 02:10:51;;;;;;;8.82;4.05;;;;;;;16.82;76.85;94359.28;5084032;28;20044;-87
2023/09/06 02:13:17;;;;;;;9.88;4.53;;;;;;;16.82;76.75;94357.38;5084344;28;20315;-88
2023/09/06 02:15:42;;;;;;;6.93;3.88;;;;;;;16.80;76.88;94361.50;5066514;28;20020;-88
2023/09/06 02:18:09;;;;;;;6.60;3.92;;;;;;;16.80;76.92;94356.13;5084085;28;20048;-88
2023/09/06 02:20:35;;;;;;;9.15;3.80;;;;;;;16.80;76.98;94353.44;5084402;28;20100;-87
2023/09/06 02:23:01;;;;;;;7.13;4.18;;;;;;;16.78;76.88;94353.75;5084401;28;20209;-87
2023/09/06 02:25:30;;;;;;;9.65;4.03;;;;;;;16.76;76.75;94361.38;5084180;28;20024;-87
2023/09/06 02:28:05;;;;;;;9.18;3.58;;;;;;;16.79;76.15;94357.22;5083866;28;20066;-88
2023/09/06 02:30:37;;;;;;;7.88;3.80;;;;;;;16.80;76.04;94362.28;5083909;28;20092;-87
2023/09/06 02:33:07;;;;;;;8.30;4.25;;;;;;;16.82;76.15;94359.28;5066172;28;20054;-87
2023/09/06 02:35:40;;;;;;;12.68;4.60;;;;;;;16.80;75.71;94356.13;5066036;28;20060;-86
2023/09/06 02:38:05;;;;;;;8.80;3.97;;;;;;;16.76;75.52;94360.59;5082436;28;20031;-87
2023/09/06 02:40:31;;;;;;;13.80;4.22;;;;;;;16.77;75.37;94359.47;5083725;28;20084;-86
2023/09/06 02:42:56;;;;;;;7.43;3.90;;;;;;;16.75;75.22;94350.94;5083513;28;20045;-86
2023/09/06 02:45:22;;;;;;;14.57;4.38;;;;;;;16.71;75.01;94361.63;5083604;28;20016;-86
2023/09/06 02:47:50;;;;;;;14.65;4.38;;;;;;;16.65;74.97;94360.31;5082538;28;20020;-87
2023/09/06 02:50:22;;;;;;;10.73;4.70;;;;;;;16.70;75.28;94357.38;5083509;28;20020;-86
2023/09/06 02:52:50;;;;;;;;;;;;;;;16.72;75.02;94359.72;5083935;28;20374;-86
2023/09/06 02:55:16;;;;;;;8.20;3.97;;;;;;;16.67;74.76;94359.94;5083553;28;19932;-86
2023/09/06 02:57:43;;;;;;;5.45;3.55;;;;;;;16.67;74.80;94359.94;5065487;28;20029;-85
2023/09/06 03:03:05;;;;;;;10.40;3.92;;;;;;;16.69;74.79;94355.00;5070131;28;20028;-86
2023/09/06 03:05:41;;;;;;;8.13;4.28;;;;;;;16.70;74.87;94364.66;5083300;28;20050;-87
2023/09/06 03:08:07;;;;;;;5.75;3.85;;;;;;;16.73;75.06;94366.66;5083257;28;20063;-86
2023/09/06 03:10:34;;;;;;;7.07;3.35;;;;;;;16.72;74.83;94365.09;5083073;28;20048;-87
2023/09/06 03:13:00;;;;;;;10.80;4.10;;;;;;;16.74;74.79;94368.25;5065215;28;20033;-86
2023/09/06 03:15:29;;;;;;;8.18;4.15;;;;;;;16.77;75.08;94372.94;5065071;28;20039;-87
2023/09/06 03:17:58;;;;;;;10.07;3.88;;;;;;;16.78;74.92;94369.13;5064048;28;20055;-87
2023/09/06 03:20:34;;;;;;;10.15;4.43;;;;;;;16.80;74.45;94372.25;5082454;28;20051;-88
2023/09/06 03:23:17;;;;;;;10.82;4.72;;;;;;;16.86;75.00;94370.16;5082134;28;20062;-88
2023/09/06 03:25:43;;;;;;;11.07;3.90;;;;;;;16.86;74.91;94365.56;5083237;28;20021;-88
2023/09/06 03:28:09;;;;;;;9.23;3.90;;;;;;;16.92;74.32;94374.19;5065634;28;20046;-88
2023/09/06 03:30:35;;;;;;;8.40;3.95;;;;;;;16.96;74.30;94373.16;5083570;28;20016;-90
2023/09/06 03:33:01;;;;;;;7.35;4.47;;;;;;;16.96;74.16;94373.16;5083433;28;20016;-88
2023/09/06 03:35:27;;;;;;;7.70;4.20;;;;;;;16.94;73.95;94375.41;5083154;28;20020;-87
2023/09/06 03:37:52;;;;;;;10.52;4.22;;;;;;;17.01;73.79;94372.91;5065639;28;20047;-87
2023/09/06 03:40:25;;;;;;;7.15;4.18;;;;;;;16.98;73.49;94368.22;5065757;28;20095;-88
2023/09/06 03:42:54;;;;;;;6.10;3.85;;;;;;;16.97;73.59;94374.72;5083401;28;20207;-88
2023/09/06 03:45:21;;;;;;;7.47;3.97;;;;;;;17.00;73.80;94373.25;5083453;28;20023;-88
2023/09/06 03:47:53;;;;;;;6.15;3.80;;;;;;;17.02;73.77;94365.63;5083364;28;20017;-88
2023/09/06 03:50:23;;;;;;;6.10;3.67;;;;;;;17.04;73.45;94372.25;5083771;28;20027;-87
2023/09/06 03:52:53;;;;;;;13.93;4.18;;;;;;;17.06;73.49;94374.59;5083272;28;20052;-88
2023/09/06 03:55:19;;;;;;;7.88;3.90;;;;;;;17.09;73.56;94384.66;5065263;28;20314;-86
2023/09/06 03:57:44;;;;;;;10.48;3.83;;;;;;;17.07;72.69;94384.22;5081236;28;20066;-86
2023/09/06 04:00:31;;;;;;;11.00;4.78;;;;;;;17.01;72.29;94366.75;5082360;28;20099;-86
2023/09/06 04:02:56;;;;;;;8.73;3.97;;;;;;;17.05;72.17;94387.25;5082307;28;20021;-86
2023/09/06 04:05:26;;;;;;;6.03;4.43;;;;;;;17.04;72.02;94393.78;5064949;28;20023;-86
2023/09/06 04:07:59;;;;;;;6.13;3.90;;;;;;;17.10;72.45;94388.16;5082534;28;20077;-85
2023/09/06 04:10:32;;;;;;;7.28;4.25;;;;;;;17.12;72.34;94400.16;5085695;28;20335;-88
2023/09/06 04:12:58;;;;;;;12.07;3.78;;;;;;;17.16;72.61;94384.88;5086542;28;20032;-88
2023/09/06 04:15:24;;;;;;;6.80;3.72;;;;;;;17.22;72.01;94393.50;5086553;28;20028;-87
2023/09/06 04:17:57;;;;;;;12.85;4.32;;;;;;;17.27;71.76;94404.03;5086470;28;20044;-88
2023/09/06 04:20:35;;;;;;;11.23;4.15;;;;;;;17.33;71.46;94394.59;5069009;28;20315;-88
2023/09/06 04:23:04;;;;;;;8.60;4.18;;;;;;;17.33;71.34;94399.97;5086309;28;20313;-87
2023/09/06 04:25:33;;;;;;;9.77;4.28;;;;;;;17.29;70.25;94392.94;5085944;28;20030;-87
2023/09/06 04:27:59;;;;;;;7.28;3.50;;;;;;;17.30;70.83;94400.66;5085939;28;20034;-87
2023/09/06 04:30:29;;;;;;;9.20;4.00;;;;;;;17.36;70.84;94398.50;5068206;28;20024;-87
2023/09/06 04:32:57;;;;;;;8.85;4.35;;;;;;;17.40;70.92;94410.16;5084805;28;20222;-86
2023/09/06 04:35:26;;;;;;;7.82;4.68;;;;;;;17.37;71.66;94408.16;5085780;28;20031;-87
2023/09/06 04:37:53;;;;;;;6.70;4.75;;;;;;;17.40;71.76;94408.28;5068469;28;20025;-86
2023/09/06 04:40:19;;;;;;;6.47;4.20;;;;;;;17.44;71.22;94406.47;5068429;28;20031;-87
2023/09/06 04:42:44;;;;;;;14.35;4.97;;;;;;;17.48;71.03;94413.84;5086047;28;20024;-87
2023/09/06 04:45:10;;;;;;;10.18;3.85;;;;;;;17.52;71.01;94407.41;5084825;28;20440;-87
2023/09/06 04:47:45;;;;;;;8.20;4.15;;;;;;;17.57;70.24;94411.78;5085828;28;20222;-87
2023/09/06 04:50:11;;;;;;;8.10;4.55;;;;;;;17.63;70.13;94410.41;5085504;28;20096;-86
2023/09/06 04:52:43;;;;;;;9.80;5.00;;;;;;;17.63;70.08;94408.50;5085504;28;20021;-86
2023/09/06 04:55:09;;;;;;;12.02;4.40;;;;;;;17.67;69.89;94422.09;5085481;28;20083;-86
2023/09/06 04:57:38;;;;;;;13.00;4.47;;;;;;;17.69;69.62;94417.13;5067328;28;20203;-86
2023/09/06 05:00:17;;;;;;;6.82;4.00;;;;;;;17.73;69.47;94419.94;5085470;28;20341;-87
2023/09/06 05:02:44;;;;;;;14.77;4.88;;;;;;;17.75;69.79;94426.53;5085594;28;20095;-87
2023/09/06 05:05:10;;;;;;;8.55;4.88;;;;;;;17.79;69.75;94424.72;5085648;28;20016;-87
2023/09/06 05:07:35;;;;;;;10.10;3.83;;;;;;;17.83;69.67;94431.03;5085557;28;20032;-88
2023/09/06 05:10:03;;;;;;;10.00;5.25;;;;;;;17.88;69.27;94429.19;5085744;28;20048;-87
2023/09/06 05:12:29;;;;;;;7.25;4.80;;;;;;;17.90;68.44;94427.72;5085335;28;20084;-86
2023/09/06 05:14:55;;;;;;;8.52;4.43;;;;;;;17.88;68.38;94421.88;5085082;28;20101;-87
2023/09/06 05:17:20;;;;;;;8.52;4.10;;;;;;;17.94;67.98;94425.13;5085099;28;20048;-84
2023/09/06 05:19:50;;;;;;;12.75;4.25;;;;;;;17.96;67.92;94425.56;5084528;28;20028;-84
2023/09/06 05:22:16;;;;;;;6.10;3.58;;;;;;;17.97;68.15;94427.13;5085194;28;20036;-84
2023/09/06 05:24:41;;;;;;;10.30;3.97;;;;;;;17.95;67.89;94432.06;5084644;28;20358;-84
2023/09/06 05:27:07;;;;;;;10.18;4.00;;;;;;;17.97;68.17;94437.91;5084524;28;20091;-85
2023/09/06 05:29:32;;;;;;;7.82;3.97;;;;;;;17.96;68.04;94439.03;5084610;28;20062;-84
2023/09/06 05:31:58;;;;;;;8.82;4.10;;;;;;;17.99;67.86;94438.34;5084521;28;20024;-84
2023/09/06 05:34:24;;;;;;;14.00;4.22;;;;;;;17.99;67.45;94439.16;5066539;28;20315;-84
2023/09/06 05:36:49;;;;;;;12.07;5.18;;;;;;;17.96;67.78;94436.34;5084475;28;20024;-85
2023/09/06 05:39:15;;;;;;;6.63;3.60;;;;;;;17.98;67.84;94434.88;5084365;28;20087;-86
2023/09/06 05:41:40;;;;;;;8.38;3.70;;;;;;;18.04;67.41;94441.56;5084410;28;20363;-86
2023/09/06 05:44:07;;;;;;;9.40;4.03;;;;;;;18.03;67.03;94439.22;5084269;28;20024;-85
2023/09/06 05:46:33;;;;;;;9.02;4.00;;;;;;;18.06;66.90;94446.63;5084273;28;20024;-85
2023/09/06 05:48:58;;;;;;;7.80;3.97;;;;;;;18.09;66.46;94445.16;5066153;28;20227;-86
2023/09/06 05:51:24;;;;;;;12.30;3.92;;;;;;;18.09;66.37;94445.91;5066395;28;20058;-86
2023/09/06 05:53:49;;;;;;;15.75;4.05;;;;;;;18.12;66.14;94441.78;5084314;28;20087;-86
2023/09/06 05:56:15;;;;;;;6.38;3.65;;;;;;;18.15;66.84;94447.22;5084498;28;20024;-86
2023/09/06 05:58:40;;;;;;;12.88;3.83;;;;;;;18.20;66.51;94451.63;5083892;28;20099;-87
2023/09/06 06:01:11;;;;;;;9.70;4.22;;;;;;;18.28;66.57;94447.16;5084217;28;20034;-87
2023/09/06 06:03:37;;;;;;;12.43;4.22;;;;;;;18.32;66.31;94458.81;5084307;28;20052;-87
2023/09/06 06:06:06;;;;;;;7.90;3.72;;;;;;;18.36;65.79;94454.31;5084172;28;20023;-85
2023/09/06 06:08:31;;;;;;;5.95;3.35;;;;;;;18.39;65.15;94464.41;5083896;28;20031;-85
2023/09/06 06:10:56;;;;;;;7.85;4.35;;;;;;;18.42;64.83;94459.13;5083514;28;20045;-85
2023/09/06 06:13:22;;;;;;;18.88;4.45;;;;;;;18.46;64.60;94461.91;5065907;28;20039;-85
2023/09/06 06:15:48;;;;;;;10.73;3.25;;;;;;;18.49;64.88;94469.28;5083676;28;20025;-85
2023/09/06 06:18:15;;;;;;;10.10;4.18;;;;;;;18.56;65.00;94472.19;5083523;28;20216;-84
2023/09/06 06:20:41;;;;;;;9.63;4.22;;;;;;;18.59;64.50;94474.16;5083603;28;20057;-85
2023/09/06 06:23:07;;;;;;;12.32;3.72;;;;;;;18.63;64.13;94466.16;5083480;28;20256;-86
2023/09/06 06:25:32;;;;;;;12.48;3.72;;;;;;;18.70;64.13;94484.44;5083542;28;20032;-86
2023/09/06 06:27:57;;;;;;;7.35;3.67;;;;;;;18.81;63.38;94474.72;5065776;28;20025;-85
2023/09/06 06:30:23;;;;;;;8.65;3.90;;;;;;;18.88;63.68;94480.28;5083429;28;20115;-83
2023/09/06 06:32:48;;;;;;;8.77;3.63;;;;;;;18.92;63.08;94489.25;5082975;28;20016;-85
2023/09/06 06:35:14;;;;;;;13.93;3.50;;;;;;;19.03;63.02;94487.59;5065262;28;20310;-85
2023/09/06 06:37:40;;;;;;;8.73;4.00;;;;;;;19.13;62.82;94482.75;5065387;28;20024;-85
2023/09/06 06:40:06;;;;;;;7.57;4.13;;;;;;;19.23;62.68;94496.53;5083169;28;20154;-84
2023/09/06 06:42:32;;;;;;;11.07;3.70;;;;;;;19.39;61.64;94499.16;5083220;28;20024;-79
2023/09/06 06:44:57;;;;;;;7.35;3.72;;;;;;;19.49;62.44;94499.75;5083112;28;20320;-77
2023/09/06 06:47:23;;;;;;;8.50;3.67;;;;;;;19.61;62.33;94505.81;5083341;28;20091;-78
2023/09/06 06:49:52;;;;;;;8.88;4.32;;;;;;;19.71;62.20;94509.91;5083329;28;20035;-75
2023/09/06 06:52:17;;;;;;;6.80;3.42;;;;;;;19.78;61.69;94510.06;5083370;28;20104;-76
2023/09/06 06:54:43;;;;;;;8.23;3.97;;;;;;;19.88;61.12;94507.94;5082805;28;20335;-76
2023/09/06 06:57:08;;;;;;;11.05;3.65;;;;;;;19.95;61.61;94502.66;5065198;28;20039;-77
2023/09/06 06:59:34;;;;;;;10.35;3.90;;;;;;;20.02;60.79;94502.78;5082724;28;20315;-76
2023/09/06 07:02:00;;;;;;;12.00;3.85;;;;;;;20.15;60.68;94506.13;5083266;28;20043;-76
2023/09/06 07:04:26;;;;;;;8.70;3.78;;;;;;;20.25;60.11;94502.81;5082936;28;20338;-77
2023/09/06 07:06:51;;;;;;;13.52;5.10;;;;;;;20.37;60.10;94508.09;5083221;28;20091;-77
2023/09/06 07:09:16;;;;;;;14.45;4.25;;;;;;;20.46;59.95;94510.56;5083173;28;20090;-77
2023/09/06 07:11:42;;;;;;;12.60;3.80;;;;;;;20.59;58.97;94503.84;5064968;28;20047;-78
2023/09/06 07:14:08;;;;;;;9.02;4.47;;;;;;;20.76;58.84;94507.22;5082605;28;20024;-78
2023/09/06 07:16:34;;;;;;;19.25;5.18;;;;;;;20.88;58.16;94509.72;5082909;28;20058;-77
2023/09/06 07:18:59;;;;;;;8.68;4.13;;;;;;;20.98;57.54;94503.69;5082921;28;20024;-78
2023/09/06 07:21:25;;;;;;;14.85;4.15;;;;;;;21.08;56.94;94493.41;5065041;28;20024;-79
2023/09/06 07:23:51;;;;;;;15.82;4.38;;;;;;;21.11;56.59;94501.59;5082447;28;20020;-76
2023/09/06 07:26:17;;;;;;;9.82;4.30;;;;;;;21.15;56.21;94494.28;5082969;28;20027;-76
2023/09/06 07:28:45;;;;;;;6.07;4.32;;;;;;;21.22;56.58;94501.75;5082687;28;20025;-76
2023/09/06 07:31:12;;;;;;;12.75;4.80;;;;;;;21.24;56.49;94491.31;5082527;28;20033;-77
2023/09/06 07:33:38;;;;;;;9.77;4.70;;;;;;;21.36;55.73;94498.47;5082316;28;20031;-77
2023/09/06 07:36:04;;;;;;;16.25;5.55;;;;;;;21.47;56.04;94495.91;5082524;28;20253;-76
2023/09/06 07:38:30;;;;;;;19.15;4.50;;;;;;;21.52;55.37;94487.47;5082760;28;20043;-76
2023/09/06 07:41:04;;;;;;;10.65;4.20;;;;;;;21.54;55.29;94485.19;5082609;28;20426;-75
2023/09/06 07:43:30;;;;;;;11.90;4.63;;;;;;;21.59;55.07;94487.56;5064986;28;20326;-75
2023/09/06 07:45:57;;;;;;;11.07;4.07;;;;;;;21.66;55.02;94476.81;5086616;28;20113;-76
2023/09/06 07:48:25;;;;;;;14.13;4.25;;;;;;;21.76;55.68;94473.44;5086625;28;20219;-76
2023/09/06 07:50:51;;;;;;;9.88;4.82;;;;;;;21.86;55.19;94476.66;5086384;28;20265;-75
2023/09/06 07:53:16;;;;;;;11.98;4.32;;;;;;;21.97;55.13;94472.13;5086489;28;20024;-75
2023/09/06 07:55:46;;;;;;;7.13;3.75;;;;;;;22.11;54.17;94472.28;5086138;28;20040;-76
2023/09/06 07:58:11;;;;;;;8.57;4.28;;;;;;;22.28;54.81;94465.50;5086318;28;20047;-75
2023/09/06 08:00:37;;;;;;;9.10;3.85;;;;;;;22.45;53.30;94475.00;5068338;28;20024;-75
2023/09/06 08:03:03;;;;;;;9.23;3.97;;;;;;;22.61;51.85;94480.97;5086328;28;20040;-75
2023/09/06 08:05:30;;;;;;;9.90;4.20;;;;;;;22.69;51.10;94481.78;5086090;28;20020;-75
2023/09/06 08:07:56;;;;;;;18.58;4.75;;;;;;;22.84;51.27;94490.84;5068197;28;20046;-76
2023/09/06 08:10:21;;;;;;;12.27;5.10;;;;;;;22.96;51.38;94482.41;5086004;28;20081;-76
2023/09/06 08:12:47;;;;;;;16.45;5.40;;;;;;;23.05;51.05;94492.22;5086116;28;20025;-76
2023/09/06 08:15:13;;;;;;;11.80;5.05;;;;;;;23.11;50.51;94480.59;5085597;28;20020;-76
2023/09/06 08:17:39;;;;;;;9.57;5.25;;;;;;;23.15;49.40;94486.84;5085694;28;20032;-75
2023/09/06 08:20:08;;;;;;;8.93;4.85;;;;;;;23.14;50.43;94489.91;5067756;28;20139;-76
2023/09/06 08:22:35;;;;;;;16.25;5.32;;;;;;;23.18;50.18;94488.00;5085746;28;20248;-75
2023/09/06 08:25:02;;;;;;;9.70;5.30;;;;;;;23.27;50.39;94493.13;5067752;28;20020;-75
2023/09/06 08:27:27;;;;;;;12.60;5.47;;;;;;;23.32;50.31;94496.25;5085245;28;20046;-75
2023/09/06 08:29:53;;;;;;;9.98;5.00;;;;;;;23.31;50.66;94489.28;5085382;28;20032;-75
2023/09/06 08:32:18;;;;;;;9.68;4.60;;;;;;;23.32;50.42;94493.53;5067792;28;20393;-75
2023/09/06 08:34:43;;;;;;;8.30;4.40;;;;;;;23.39;51.12;94490.88;5085415;28;20026;-75
2023/09/06 08:37:09;;;;;;;10.65;4.88;;;;;;;23.46;50.91;94483.91;5085241;28;20020;-76
2023/09/06 08:39:34;;;;;;;10.48;4.22;;;;;;;23.49;50.03;94497.53;5085347;28;20028;-76
2023/09/06 08:42:03;;;;;;;10.63;3.97;;;;;;;23.51;50.52;94495.22;5085418;28;20017;-75
2023/09/06 08:44:31;;;;;;;11.10;4.07;;;;;;;23.55;50.35;94492.50;5085227;28;20044;-75
2023/09/06 08:47:01;;;;;;;17.05;5.10;;;;;;;23.60;50.73;94486.72;5084962;28;20039;-74
2023/09/06 08:49:27;;;;;;;12.88;4.57;;;;;;;23.65;50.20;94486.38;5085403;28;20109;-75
2023/09/06 08:51:55;;;;;;;12.10;4.53;;;;;;;23.66;50.38;94490.63;5084944;28;20046;-74
2023/09/06 08:54:23;;;;;;;7.90;4.55;;;;;;;23.72;49.64;94485.63;5084721;28;20025;-74
2023/09/06 08:56:50;;;;;;;6.07;4.20;;;;;;;23.79;49.88;94486.47;5085220;28;20341;-74
2023/09/06 08:59:17;;;;;;;13.57;4.45;;;;;;;23.80;49.27;94490.72;5085252;28;20257;-74
2023/09/06 09:01:43;;;;;;;8.60;4.60;;;;;;;23.89;49.47;94484.16;5085083;28;20024;-74
2023/09/06 09:04:09;;;;;;;7.63;4.32;;;;;;;23.92;48.51;94477.94;5084797;28;20020;-74
2023/09/06 09:06:34;;;;;;;13.23;4.57;;;;;;;23.99;49.12;94478.72;5085068;28;20032;-74
2023/09/06 09:09:16;;;;;;;9.32;4.25;;;;;;;24.08;48.09;94475.69;5084680;28;20108;-74
2023/09/06 09:11:48;;;;;;;;;;;;;;;24.11;48.64;94477.63;5084969;28;20101;-74
2023/09/06 09:14:25;;;;;;;12.33;4.27;;;;;;;24.13;48.03;94478.00;5084703;28;19943;-74
2023/09/06 09:16:57;;;;;;;14.90;4.57;;;;;;;24.17;47.71;94486.97;5084772;28;20020;-74
2023/09/06 09:19:24;;;;;;;7.85;3.72;;;;;;;24.15;46.97;94475.69;5084608;28;20016;-74
2023/09/06 09:21:55;;;;;;;9.00;4.13;;;;;;;24.18;46.81;94494.00;5084970;28;20027;-75
2023/09/06 09:24:30;;;;;;;8.50;4.10;;;;;;;24.17;47.91;94483.47;5084874;28;20031;-76
2023/09/06 09:26:59;;;;;;;8.60;4.43;;;;;;;24.31;47.26;94493.63;5084553;28;20100;-76
2023/09/06 09:29:27;;;;;;;9.73;4.47;;;;;;;24.38;47.31;94493.63;5084626;28;20039;-76
2023/09/06 09:31:52;;;;;;;8.02;4.10;;;;;;;24.40;46.96;94485.84;5084626;28;20020;-76
2023/09/06 09:34:18;;;;;;;8.80;3.83;;;;;;;24.45;47.35;94487.44;5066515;28;20319;-75
2023/09/06 09:36:51;;;;;;;9.88;5.00;;;;;;;24.53;46.54;94489.81;5084466;28;20035;-75
2023/09/06 09:39:18;;;;;;;10.23;4.28;;;;;;;24.57;47.70;94485.16;5084269;28;20020;-75
2023/09/06 09:41:44;;;;;;;12.48;4.07;;;;;;;24.60;47.00;94495.25;5084235;28;20305;-73
2023/09/06 09:44:16;;;;;;;14.90;4.35;;;;;;;24.67;46.77;94497.22;5083180;28;20032;-73
2023/09/06 09:46:43;;;;;;;16.13;4.45;;;;;;;24.69;46.34;94496.81;5084369;28;20031;-73
2023/09/06 09:49:10;;;;;;;13.85;4.82;;;;;;;24.69;46.76;94492.16;5084296;28;20016;-73
2023/09/06 09:51:38;;;;;;;13.25;5.40;;;;;;;24.67;46.49;94505.41;5084006;28;20261;-74
2023/09/06 09:54:04;;;;;;;17.08;4.65;;;;;;;24.70;46.27;94498.41;5084103;28;20238;-73
2023/09/06 09:56:32;;;;;;;15.73;4.55;;;;;;;24.70;46.59;94487.50;5084028;28;20036;-74
2023/09/06 09:59:00;;;;;;;9.18;4.55;;;;;;;24.71;46.14;94492.56;5084113;28;20135;-74
2023/09/06 10:01:27;;;;;;;7.90;4.25;;;;;;;24.70;46.78;94495.66;5083978;28;20032;-74
2023/09/06 10:03:55;;;;;;;7.55;4.28;;;;;;;24.73;46.72;94487.50;5084056;28;20016;-75
2023/09/06 10:06:24;;;;;;;6.93;4.65;;;;;;;24.74;45.82;94499.19;5083080;28;20089;-75
2023/09/06 10:08:53;;;;;;;8.45;4.78;;;;;;;24.75;45.89;94498.78;5065996;28;20211;-76
2023/09/06 10:11:20;;;;;;;15.80;5.63;;;;;;;24.77;46.26;94491.00;5083687;28;20045;-75
2023/09/06 10:13:47;;;;;;;18.65;7.50;;;;;;;24.82;45.79;94476.97;5083898;28;20103;-74
2023/09/06 10:16:13;;;;;;;14.00;7.53;;;;;;;24.87;45.63;94485.94;5065768;28;20020;-74
2023/09/06 10:18:39;;;;;;;26.17;10.27;;;;;;;24.92;45.91;94486.34;5083742;28;20195;-74
2023/09/06 10:21:06;;;;;;;15.65;7.72;;;;;;;24.91;45.52;94481.25;5082444;28;20016;-73
2023/09/06 10:23:34;;;;;;;13.60;6.88;;;;;;;24.99;45.75;94480.88;5083471;28;20099;-73
2023/09/06 10:26:01;;;;;;;24.58;5.75;;;;;;;25.10;45.45;94480.88;5083375;28;20013;-75
2023/09/06 10:28:32;;;;;;;11.82;5.03;;;;;;;25.11;44.88;94478.91;5083352;28;20045;-74
2023/09/06 10:31:07;;;;;;;16.85;5.28;;;;;;;25.11;45.31;94473.47;5083321;28;20099;-75
2023/09/06 10:33:42;;;;;;;14.07;5.57;;;;;;;25.13;44.87;94465.66;5083068;28;20199;-75
2023/09/06 10:36:17;;;;;;;12.25;5.80;;;;;;;25.10;44.64;94466.47;5082883;28;20028;-75
2023/09/06 10:38:52;;;;;;;16.92;4.60;;;;;;;25.06;44.43;94476.59;5082802;28;20021;-75
2023/09/06 10:41:21;;;;;;;11.68;5.32;;;;;;;24.97;44.03;94458.69;5083156;28;20024;-76
2023/09/06 10:44:01;;;;;;;11.57;5.45;;;;;;;24.94;44.71;94475.03;5065478;28;20051;-75
2023/09/06 10:46:27;;;;;;;11.40;4.95;;;;;;;24.91;44.45;94465.66;5083089;28;20020;-76
2023/09/06 10:49:12;;;;;;;8.80;5.10;;;;;;;24.94;44.02;94458.69;5083233;28;20093;-75
2023/09/06 10:51:57;;;;;;;16.80;5.50;;;;;;;25.00;44.00;94457.13;5083198;28;20044;-74
2023/09/06 10:54:34;;;;;;;11.35;5.38;;;;;;;25.01;43.26;94445.81;5083098;28;20035;-74
2023/09/06 10:57:18;;;;;;;13.75;5.30;;;;;;;25.02;43.81;94455.56;5083041;28;20020;-74
2023/09/06 10:59:55;;;;;;;9.65;5.25;;;;;;;25.12;43.72;94447.75;5082927;28;20024;-74
2023/09/06 11:02:23;;;;;;;12.13;5.68;;;;;;;25.13;44.07;94447.34;5083110;28;20141;-74
2023/09/06 11:05:05;;;;;;;15.85;5.38;;;;;;;25.13;42.78;94447.34;5083097;28;20307;-75
2023/09/06 11:07:41;;;;;;;;;;;;;;;25.11;42.43;94446.97;5083510;28;20223;-74
2023/09/06 11:10:07;;;;;;;13.75;5.45;;;;;;;25.09;43.04;94441.13;5082548;28;19905;-75
2023/09/06 11:12:34;;;;;;;11.80;5.97;;;;;;;25.09;42.61;94437.63;5083060;28;20219;-73
2023/09/06 11:14:59;;;;;;;13.23;5.93;;;;;;;25.11;42.01;94438.78;5082773;28;20021;-73
2023/09/06 11:17:26;;;;;;;13.15;4.95;;;;;;;25.16;42.47;94446.56;5083308;28;20097;-74
2023/09/06 11:19:52;;;;;;;18.73;5.03;;;;;;;25.25;42.52;94435.28;5089418;28;20021;-75
2023/09/06 11:22:17;;;;;;;14.23;5.93;;;;;;;25.32;42.29;94439.94;5089831;28;20065;-75
2023/09/06 11:24:43;;;;;;;12.43;5.47;;;;;;;25.37;42.12;94437.59;5089481;28;20020;-74
2023/09/06 11:27:20;;;;;;;9.50;5.45;;;;;;;25.43;41.96;94432.50;5071592;28;20360;-75
2023/09/06 11:29:56;;;;;;;11.82;6.07;;;;;;;25.56;42.23;94430.13;5089619;28;20318;-74
2023/09/06 11:32:21;;;;;;;20.20;6.28;;;;;;;25.64;39.83;94428.94;5071445;28;20229;-74
2023/09/06 11:34:47;;;;;;;8.93;5.32;;;;;;;25.75;40.89;94428.91;5089408;28;20031;-75
2023/09/06 11:37:15;;;;;;;19.20;5.70;;;;;;;25.88;40.95;94432.72;5089437;28;20078;-76